Date,TemperatureHighF,TemperatureAvgF,TemperatureLowF,DewpointHighF,DewpointAvgF,DewpointLowF,HumidityHigh,HumidityAvg,HumidityLow,PressureMaxIn,PressureMinIn,WindSpeedMaxMPH,WindSpeedAvgMPH,GustSpeedMaxMPH,PrecipitationSumIn
2013-3-1,76.5,68.0,65.1,64.4,61.7,59.7,85,81,64,29.89,29.78,14,8,21,0.01
2013-3-2,75.0,67.8,64.0,60.3,58.6,55.3,84,73,55,29.94,29.82,19,9,32,0.01
2013-3-3,70.5,63.3,58.8,58.5,55.1,52.3,83,75,59,30.01,29.91,26,14,36,0.07
2013-3-4,73.8,65.5,59.5,60.2,57.7,54.1,84,76,61,29.99,29.86,21,11,33,0.02
2013-3-5,82.4,70.6,64.9,64.0,61.9,59.7,87,75,54,29.96,29.84,17,9,27,0.00
2013-3-6,78.6,70.7,66.9,64.6,63.3,61.1,86,78,62,29.98,29.87,16,8,28,0.00
2013-3-7,77.7,71.1,66.7,63.7,62.7,61.6,87,75,62,29.97,29.85,21,11,34,0.02
2013-3-8,78.4,71.1,66.7,64.7,62.9,60.6,86,76,62,29.94,29.83,24,11,34,0.06
2013-3-9,80.8,71.0,65.5,64.2,61.9,59.5,85,74,54,29.95,29.83,17,10,26,0.00
2013-3-10,81.9,71.2,65.7,64.6,61.8,59.5,86,73,53,29.90,29.79,19,9,26,0.00
2013-3-11,83.1,72.8,64.9,64.6,61.5,58.6,83,69,49,29.90,29.78,17,8,27,0.00
2013-3-12,81.9,72.2,66.4,64.3,62.5,59.7,83,72,53,29.93,29.82,18,8,29,0.00
2013-3-13,77.4,69.6,64.9,62.6,60.4,57.4,85,73,59,29.95,29.84,18,10,30,0.01
2013-3-14,73.9,67.4,63.7,60.2,57.7,53.7,83,71,57,29.94,29.85,17,10,31,0.02
2013-3-15,73.8,66.8,63.3,60.8,56.5,51.2,81,70,58,29.94,29.83,16,10,26,0.00
2013-3-16,80.2,70.6,63.9,60.3,56.0,48.7,77,61,47,29.92,29.80,18,10,30,0.00
2013-3-17,86.9,72.3,63.3,64.1,60.1,54.9,86,67,39,29.94,29.83,14,7,20,0.00
2013-3-18,86.4,74.0,64.0,64.4,61.6,57.2,83,67,39,29.94,29.84,14,6,23,0.00
2013-3-19,86.2,74.3,64.2,65.8,62.2,57.4,83,67,44,29.93,29.81,15,6,24,0.00
2013-3-20,88.9,74.7,61.7,66.0,60.5,53.6,84,64,33,29.91,29.79,12,3,17,0.00
2013-3-21,91.2,73.4,64.9,68.1,58.8,24.9,92,69,10,29.91,29.78,14,3,21,0.34
2013-3-22,89.4,74.7,60.6,67.7,57.1,33.9,89,60,18,29.91,29.82,13,4,18,0.00
2013-3-29,73.6,67.5,65.3,58.9,54.7,51.3,68,64,54,29.99,29.91,19,9,27,0.12
2013-3-30,82.6,71.3,63.5,63.3,59.2,51.0,87,67,45,29.98,29.87,18,10,28,0.00
2013-3-31,82.2,72.3,66.6,65.9,63.9,60.9,87,75,56,29.94,27.76,17,9,28,0.00